| Pilot: | GLD1134 Wellinghton L. | Aircraft: | $$:Helicopter | Distance: | 63NM |
| From: | SSCN | To: | SSCN | Duration: | 0.90 |
| Validation: | Valid | Tipo: | Charter | Tail Number: | PT-GLD |
| ZFW: | 3034 | Block Fuel/Init FOB | 432flight_details.php/307 | Flight Fuel | 432 |
| Passengers: | 0 | Cargo: | 50 | Alternate: | SBCO |
| Departure Time: | 1034 | Cruise Speed: | 0120 | Flight Level: | A055 |
| Flight Type: | VFR | Aircraft Type: | AS50 | Weight Unit: | Kg |
| Date: | 29/03/2026 | Comments: | GOLD ACARS | Network: | VATSIM |
| Crash: | No | Validator Comments: | Rating | 77.3423 |
| ROUTE | 2929S05043W 2929S05022W |
| REMARKS | OPR/GOLD VIRTUAL AIRLINES PER/H RMK/FROM SSCN RMK/PIC GLD1134 RMK/ SAR |
| Crash | OK | Beacon Lights off with engine on | Fault | Speed above 250KIAS below 10.000ft | OK |
| Landing Lights OFF below 10.000ft | Fault | Landing Lights ON above 10.000ft | OK | Stall | OK |
| Overspeed | OK | Pause | OK | Refuel | OK |
| Slew | OK | Taxi Lights OFF during taxi | Fault | Land Lights OFF during take off | OK |
| Landing Lights OFF during landing | Fault | Landed in not planned airfield | OK | Taxi speed above 25 kt | OK |
| Incorrect QNH during take off | OK | Incorrect QNH during landing | OK |
| Wind: | 198º/9 kt | Heading: | 261 |
| VS: | -89 ft/min | IAS: | 17 kt |
| Gforce: | 1.0208 G | Bank: | -1.44 |
| Pitch | 3.76 | Flaps | 0 |
| Nav Lights | OFF | Landing Lights | OFF |
| Beacon Lights | OFF | Strobe Lights | OFF |
| DATE | EVENT | IAS | ALTITUDE |
|---|---|---|---|
| 2026-03-29 10:34:36 | GOLD ACARS VERSION 3.3.6.9 | 0 | 0 |
| 2026-03-29 10:34:36 | BOARDING | 0 | 2731 |
| 2026-03-29 10:34:36 | LITTLENAVMAP ON | 0 | 2731 |
| 2026-03-29 10:36:36 | LND LIGHTS ON | 0 | 2728 |
| 2026-03-29 10:36:37 | LND LIGHTS OFF | 0 | 2728 |
| 2026-03-29 10:36:39 | TAXI LIGHTS ON | 0 | 2728 |
| 2026-03-29 10:36:40 | TAXI LIGHTS OFF | 0 | 2728 |
| 2026-03-29 10:36:41 | LND LIGHTS OFF | 0 | 2728 |
| 2026-03-29 10:36:42 | TAXI LIGHTS ON | 0 | 2728 |
| 2026-03-29 10:36:43 | TAXI LIGHTS OFF | 0 | 2728 |
| 2026-03-29 10:36:44 | LND LIGHTS ON | 0 | 2728 |
| 2026-03-29 10:36:45 | LND LIGHTS OFF | 0 | 2728 |
| 2026-03-29 10:37:54 | STARTING ENGINE 1 | 0 | 2731 |
| 2026-03-29 10:37:54 | BEACON LIGHT OFF & ENGINE ON | 0 | 2731 |
| 2026-03-29 10:43:13 | TAXI TO THE RWY | 0 | 2732 |
| 2026-03-29 10:43:13 | TAXING WITH TAXI LIGHTS OFF | 0 | 2732 |
| 2026-03-29 10:44:51 | CLIMBING | 39 | 2847 |
| 2026-03-29 10:44:51 | LIGHTS OFF BELOW 10000 ft | 39 | 2847 |
| 2026-03-29 10:45:20 | CRUISE | 79 | 3080 |
| 2026-03-29 10:45:30 | CLIMBING | 91 | 3121 |
| 2026-03-29 10:46:24 | CRUISE | 112 | 3756 |
| 2026-03-29 10:46:26 | CLIMBING | 112 | 3762 |
| 2026-03-29 10:46:52 | CRUISE | 120 | 4115 |
| 2026-03-29 10:47:06 | CLIMBING | 123 | 4129 |
| 2026-03-29 10:47:09 | CRUISE | 123 | 4148 |
| 2026-03-29 10:47:14 | DESCEND | 124 | 4142 |
| 2026-03-29 10:47:31 | CLIMBING | 122 | 4163 |
| 2026-03-29 10:48:07 | CRUISE | 110 | 4523 |
| 2026-03-29 10:53:00 | CLIMBING | 126 | 4508 |
| 2026-03-29 10:53:05 | CRUISE | 126 | 4536 |
| 2026-03-29 10:54:15 | DESCEND | 104 | 4522 |
| 2026-03-29 11:02:36 | CLIMBING | 13 | 1110 |
| 2026-03-29 11:03:01 | CRUISE | 50 | 1447 |
| 2026-03-29 11:03:08 | CLIMBING | 62 | 1473 |
| 2026-03-29 11:05:09 | CRUISE | 95 | 3420 |
| 2026-03-29 11:05:55 | CLIMBING | 93 | 3490 |
| 2026-03-29 11:06:00 | CRUISE | 89 | 3533 |
| 2026-03-29 11:06:36 | LANDING | 14 | 3459 |
| 2026-03-29 11:06:55 | CLIMBING | 2 | 3476 |
| 2026-03-29 11:07:21 | CRUISE | 33 | 3689 |
| 2026-03-29 11:07:41 | LANDING | 78 | 3557 |
| 2026-03-29 11:12:30 | CLIMBING | 68 | 1165 |
| 2026-03-29 11:12:40 | CRUISE | 64 | 1264 |
| 2026-03-29 11:12:54 | CLIMBING | 68 | 1353 |
| 2026-03-29 11:13:15 | CRUISE | 56 | 1569 |
| 2026-03-29 11:13:25 | LANDING | 52 | 1548 |
| 2026-03-29 11:14:48 | CLIMBING | 55 | 1346 |
| 2026-03-29 11:16:10 | CRUISE | 122 | 2847 |
| 2026-03-29 11:16:19 | CLIMBING | 130 | 2873 |
| 2026-03-29 11:16:24 | CRUISE | 133 | 2921 |
| 2026-03-29 11:16:30 | CLIMBING | 141 | 2938 |
| 2026-03-29 11:18:04 | CRUISE | 134 | 4631 |
| 2026-03-29 11:18:21 | CLIMBING | 136 | 4642 |
| 2026-03-29 11:18:28 | CRUISE | 134 | 4749 |
| 2026-03-29 11:20:07 | CLIMBING | 134 | 4590 |
| 2026-03-29 11:20:10 | CRUISE | 136 | 4614 |
| 2026-03-29 11:20:15 | DESCEND | 137 | 4610 |
| 2026-03-29 11:21:22 | CLIMBING | 136 | 4574 |
| 2026-03-29 11:21:26 | CRUISE | 138 | 4612 |
| 2026-03-29 11:22:31 | LANDING | 145 | 4009 |
| 2026-03-29 11:22:55 | CLIMBING | 139 | 3300 |
| 2026-03-29 11:23:02 | CRUISE | 127 | 3410 |
| 2026-03-29 11:23:02 | LANDING | 127 | 3409 |
| 2026-03-29 11:23:30 | CLIMBING | 116 | 3202 |
| 2026-03-29 11:23:35 | CRUISE | 112 | 3245 |
| 2026-03-29 11:23:39 | CLIMBING | 110 | 3264 |
| 2026-03-29 11:23:44 | CRUISE | 108 | 3295 |
| 2026-03-29 11:23:53 | CLIMBING | 99 | 3331 |
| 2026-03-29 11:23:58 | CRUISE | 95 | 3368 |
| 2026-03-29 11:24:01 | LANDING | 93 | 3362 |
| 2026-03-29 11:24:15 | CLIMBING | 82 | 3356 |
| 2026-03-29 11:24:18 | CRUISE | 80 | 3371 |
| 2026-03-29 11:24:20 | LANDING | 79 | 3372 |
| 2026-03-29 11:25:16 | LANDED AIRPORT [SSCN] | 20 | 2744 |
| 2026-03-29 11:25:16 | TAXI TO THE GATE | 17 | 2742 |
| 2026-03-29 11:28:07 | STOPPING ENGINE 1 | 0 | 2741 |
| 2026-03-29 11:28:33 | FLIGHT FINISHED | 0 | 2741 |
| 2026-03-29 10:34:36 | GOLD ACARS VERSION 3.3.6.9 | 0 | 0 |
| 2026-03-29 10:34:36 | BOARDING | 0 | 2731 |
| 2026-03-29 10:34:36 | LITTLENAVMAP ON | 0 | 2731 |
| 2026-03-29 10:36:36 | LND LIGHTS ON | 0 | 2728 |
| 2026-03-29 10:36:37 | LND LIGHTS OFF | 0 | 2728 |
| 2026-03-29 10:36:39 | TAXI LIGHTS ON | 0 | 2728 |
| 2026-03-29 10:36:40 | TAXI LIGHTS OFF | 0 | 2728 |
| 2026-03-29 10:36:41 | LND LIGHTS OFF | 0 | 2728 |
| 2026-03-29 10:36:42 | TAXI LIGHTS ON | 0 | 2728 |
| 2026-03-29 10:36:43 | TAXI LIGHTS OFF | 0 | 2728 |
| 2026-03-29 10:36:44 | LND LIGHTS ON | 0 | 2728 |
| 2026-03-29 10:36:45 | LND LIGHTS OFF | 0 | 2728 |
| 2026-03-29 10:37:54 | STARTING ENGINE 1 | 0 | 2731 |
| 2026-03-29 10:37:54 | BEACON LIGHT OFF & ENGINE ON | 0 | 2731 |
| 2026-03-29 10:43:13 | TAXI TO THE RWY | 0 | 2732 |
| 2026-03-29 10:43:13 | TAXING WITH TAXI LIGHTS OFF | 0 | 2732 |
| 2026-03-29 10:44:51 | CLIMBING | 39 | 2847 |
| 2026-03-29 10:44:51 | LIGHTS OFF BELOW 10000 ft | 39 | 2847 |
| 2026-03-29 10:45:20 | CRUISE | 79 | 3080 |
| 2026-03-29 10:45:30 | CLIMBING | 91 | 3121 |
| 2026-03-29 10:46:24 | CRUISE | 112 | 3756 |
| 2026-03-29 10:46:26 | CLIMBING | 112 | 3762 |
| 2026-03-29 10:46:52 | CRUISE | 120 | 4115 |
| 2026-03-29 10:47:06 | CLIMBING | 123 | 4129 |
| 2026-03-29 10:47:09 | CRUISE | 123 | 4148 |
| 2026-03-29 10:47:14 | DESCEND | 124 | 4142 |
| 2026-03-29 10:47:31 | CLIMBING | 122 | 4163 |
| 2026-03-29 10:48:07 | CRUISE | 110 | 4523 |
| 2026-03-29 10:53:00 | CLIMBING | 126 | 4508 |
| 2026-03-29 10:53:05 | CRUISE | 126 | 4536 |
| 2026-03-29 10:54:15 | DESCEND | 104 | 4522 |
| 2026-03-29 11:02:36 | CLIMBING | 13 | 1110 |
| 2026-03-29 11:03:01 | CRUISE | 50 | 1447 |
| 2026-03-29 11:03:08 | CLIMBING | 62 | 1473 |
| 2026-03-29 11:05:09 | CRUISE | 95 | 3420 |
| 2026-03-29 11:05:55 | CLIMBING | 93 | 3490 |
| 2026-03-29 11:06:00 | CRUISE | 89 | 3533 |
| 2026-03-29 11:06:36 | LANDING | 14 | 3459 |
| 2026-03-29 11:06:55 | CLIMBING | 2 | 3476 |
| 2026-03-29 11:07:21 | CRUISE | 33 | 3689 |
| 2026-03-29 11:07:41 | LANDING | 78 | 3557 |
| 2026-03-29 11:12:30 | CLIMBING | 68 | 1165 |
| 2026-03-29 11:12:40 | CRUISE | 64 | 1264 |
| 2026-03-29 11:12:54 | CLIMBING | 68 | 1353 |
| 2026-03-29 11:13:15 | CRUISE | 56 | 1569 |
| 2026-03-29 11:13:25 | LANDING | 52 | 1548 |
| 2026-03-29 11:14:48 | CLIMBING | 55 | 1346 |
| 2026-03-29 11:16:10 | CRUISE | 122 | 2847 |
| 2026-03-29 11:16:19 | CLIMBING | 130 | 2873 |
| 2026-03-29 11:16:24 | CRUISE | 133 | 2921 |
| 2026-03-29 11:16:30 | CLIMBING | 141 | 2938 |
| 2026-03-29 11:18:04 | CRUISE | 134 | 4631 |
| 2026-03-29 11:18:21 | CLIMBING | 136 | 4642 |
| 2026-03-29 11:18:28 | CRUISE | 134 | 4749 |
| 2026-03-29 11:20:07 | CLIMBING | 134 | 4590 |
| 2026-03-29 11:20:10 | CRUISE | 136 | 4614 |
| 2026-03-29 11:20:15 | DESCEND | 137 | 4610 |
| 2026-03-29 11:21:22 | CLIMBING | 136 | 4574 |
| 2026-03-29 11:21:26 | CRUISE | 138 | 4612 |
| 2026-03-29 11:22:31 | LANDING | 145 | 4009 |
| 2026-03-29 11:22:55 | CLIMBING | 139 | 3300 |
| 2026-03-29 11:23:02 | CRUISE | 127 | 3410 |
| 2026-03-29 11:23:02 | LANDING | 127 | 3409 |
| 2026-03-29 11:23:30 | CLIMBING | 116 | 3202 |
| 2026-03-29 11:23:35 | CRUISE | 112 | 3245 |
| 2026-03-29 11:23:39 | CLIMBING | 110 | 3264 |
| 2026-03-29 11:23:44 | CRUISE | 108 | 3295 |
| 2026-03-29 11:23:53 | CLIMBING | 99 | 3331 |
| 2026-03-29 11:23:58 | CRUISE | 95 | 3368 |
| 2026-03-29 11:24:01 | LANDING | 93 | 3362 |
| 2026-03-29 11:24:15 | CLIMBING | 82 | 3356 |
| 2026-03-29 11:24:18 | CRUISE | 80 | 3371 |
| 2026-03-29 11:24:20 | LANDING | 79 | 3372 |
| 2026-03-29 11:25:16 | LANDED AIRPORT [SSCN] | 20 | 2744 |
| 2026-03-29 11:25:16 | TAXI TO THE GATE | 17 | 2742 |
| 2026-03-29 11:28:07 | STOPPING ENGINE 1 | 0 | 2741 |
| 2026-03-29 11:28:33 | FLIGHT FINISHED | 0 | 2741 |
| DATE | IAS | GS | ALTITUDE | FUEL USED | OAT | Flight Phase |
|---|---|---|---|---|---|---|
| 2026-03-29 10:36:36 | 0 | 0 | 2728 | 0 | 25 | BOARDING |
| 2026-03-29 10:37:36 | 0 | 0 | 2731 | 3 | 25 | BOARDING |
| 2026-03-29 10:38:36 | 0 | 0 | 2731 | 5 | 25 | BOARDING |
| 2026-03-29 10:39:36 | 0 | 0 | 2731 | 6 | 25 | BOARDING |
| 2026-03-29 10:40:36 | 0 | 0 | 2731 | 7 | 25 | BOARDING |
| 2026-03-29 10:41:37 | 0 | 0 | 2731 | 9 | 25 | BOARDING |
| 2026-03-29 10:42:37 | 0 | 0 | 2731 | 10 | 25 | BOARDING |
| 2026-03-29 10:43:37 | 9 | 11 | 2739 | 12 | 25 | BOARDING |
| 2026-03-29 10:44:37 | 23 | 22 | 2786 | 15 | 25 | TAXI TO THE RWY |
| 2026-03-29 10:45:37 | 96 | 102 | 3175 | 17 | 24 | TAXI TO THE RWY |
| 2026-03-29 10:46:37 | 117 | 131 | 3911 | 20 | 22 | CLIMBING |
| 2026-03-29 10:47:37 | 122 | 134 | 4228 | 23 | 21 | CLIMBING |
| 2026-03-29 10:48:38 | 119 | 135 | 4507 | 26 | 20 | CLIMBING |
| 2026-03-29 10:49:38 | 114 | 130 | 4503 | 28 | 20 | CRUISE |
| 2026-03-29 10:50:38 | 118 | 136 | 4502 | 31 | 20 | CRUISE |
| 2026-03-29 10:51:38 | 126 | 143 | 4504 | 34 | 20 | CRUISE |
| 2026-03-29 10:52:38 | 126 | 140 | 4501 | 37 | 20 | CRUISE |
| 2026-03-29 10:53:38 | 124 | 134 | 4561 | 40 | 20 | CRUISE |
| 2026-03-29 10:54:38 | 93 | 98 | 4449 | 42 | 20 | CRUISE |
| 2026-03-29 10:55:39 | 51 | 62 | 3733 | 44 | 22 | DESCEND |
| 2026-03-29 10:56:39 | 68 | 74 | 2365 | 46 | 27 | DESCEND |
| 2026-03-29 10:57:39 | 47 | 52 | 1407 | 47 | 29 | DESCEND |
| 2026-03-29 10:58:39 | 53 | 59 | 1718 | 50 | 29 | DESCEND |
| 2026-03-29 10:59:39 | 35 | 41 | 1717 | 52 | 29 | DESCEND |
| 2026-03-29 11:00:40 | 28 | 29 | 1398 | 54 | 29 | DESCEND |
| 2026-03-29 11:01:40 | 2 | 7 | 1070 | 56 | 29 | DESCEND |
| 2026-03-29 11:02:40 | 14 | 22 | 1139 | 59 | 29 | DESCEND |
| 2026-03-29 11:03:40 | 61 | 63 | 1828 | 62 | 29 | CLIMBING |
| 2026-03-29 11:04:40 | 82 | 85 | 2943 | 65 | 24 | CLIMBING |
| 2026-03-29 11:05:40 | 95 | 103 | 3460 | 68 | 23 | CLIMBING |
| 2026-03-29 11:06:40 | 10 | 11 | 3423 | 70 | 23 | CRUISE |
| 2026-03-29 11:07:41 | 79 | 92 | 3557 | 72 | 22 | LANDING |
| 2026-03-29 11:08:41 | 88 | 97 | 2855 | 74 | 25 | LANDING |
| 2026-03-29 11:09:41 | 41 | 41 | 2751 | 76 | 25 | LANDING |
| 2026-03-29 11:10:41 | 62 | 62 | 2736 | 79 | 25 | LANDING |
| 2026-03-29 11:11:41 | 97 | 102 | 1591 | 81 | 29 | LANDING |
| 2026-03-29 11:12:41 | 65 | 66 | 1272 | 83 | 29 | LANDING |
| 2026-03-29 11:13:41 | 51 | 58 | 1483 | 85 | 29 | CRUISE |
| 2026-03-29 11:14:41 | 55 | 59 | 1325 | 87 | 29 | LANDING |
| 2026-03-29 11:15:42 | 78 | 90 | 2463 | 90 | 27 | LANDING |
| 2026-03-29 11:16:42 | 136 | 144 | 3221 | 94 | 23 | CLIMBING |
| 2026-03-29 11:17:42 | 133 | 144 | 4363 | 98 | 20 | CLIMBING |
| 2026-03-29 11:18:42 | 131 | 138 | 4680 | 101 | 20 | CLIMBING |
| 2026-03-29 11:19:42 | 118 | 132 | 4599 | 104 | 20 | CRUISE |
| 2026-03-29 11:20:43 | 141 | 153 | 4586 | 107 | 20 | CRUISE |
| 2026-03-29 11:21:43 | 142 | 152 | 4595 | 111 | 20 | DESCEND |
| 2026-03-29 11:22:43 | 150 | 161 | 3360 | 114 | 23 | CRUISE |
| 2026-03-29 11:23:43 | 110 | 119 | 3287 | 116 | 24 | LANDING |
| 2026-03-29 11:24:43 | 73 | 71 | 3068 | 118 | 24 | CLIMBING |
| 2026-03-29 11:25:43 | 21 | 20 | 2790 | 120 | 25 | LANDING |
| 2026-03-29 11:26:43 | 4 | 0 | 2743 | 122 | 25 | TAXI TO THE GATE |
| 2026-03-29 11:27:44 | 0 | 0 | 2741 | 124 | 25 | TAXI TO THE GATE |
| 2026-03-29 11:49:54 | 0 | 0 | 2569 | 0 | 25 | TAXI TO THE GATE |